Time;durP1;ratioP1;P1;durP2;ratioP2;P2;SDS_P1;SDS_P2;PMS_P1;PMS_P2;Temp;Humidity;BMP_temperature;BMP_pressure;BME280_temperature;BME280_humidity;BME280_pressure;Samples;Min_cycle;Max_cycle;Signal;HPM_P1;HPM_P2
2022/02/02 00:04:50;;;;;;;3.50;0.93;;;16.50;57.10;;;;;;5009890;28;20034;-61
2022/02/02 00:09:56;;;;;;;1.73;0.90;;;16.50;57.10;;;;;;5011277;28;20033;-55
2022/02/02 00:17:55;;;;;;;2.80;1.02;;;16.50;57.20;;;;;;5007951;28;20284;-51
2022/02/02 00:20:32;;;;;;;1.75;0.73;;;16.50;57.10;;;;;;5013439;28;20034;-61
2022/02/02 00:23:01;;;;;;;2.33;0.80;;;16.50;57.10;;;;;;5014567;28;20068;-50
2022/02/02 00:25:34;;;;;;;2.58;0.93;;;16.60;57.10;;;;;;5018182;28;20069;-58
2022/02/02 00:28:02;;;;;;;2.00;0.70;;;16.60;57.10;;;;;;5013703;28;20061;-54
2022/02/02 00:30:32;;;;;;;1.63;0.80;;;16.60;57.10;;;;;;5017615;28;20041;-53
2022/02/02 00:33:09;;;;;;;1.77;0.90;;;16.60;57.10;;;;;;5014529;28;20034;-51
2022/02/02 00:35:40;;;;;;;3.17;1.13;;;16.50;57.00;;;;;;5032436;28;20034;-50
2022/02/02 00:38:06;;;;;;;1.70;0.85;;;16.60;57.00;;;;;;5014442;28;20049;-61
2022/02/02 00:40:31;;;;;;;3.38;1.08;;;16.60;57.00;;;;;;5015522;28;20107;-59
2022/02/02 00:42:57;;;;;;;1.67;0.95;;;16.60;56.90;;;;;;5040582;28;20033;-53
2022/02/02 00:45:30;;;;;;;2.95;0.90;;;16.60;56.90;;;;;;5010346;28;20646;-55
2022/02/02 00:47:55;;;;;;;1.73;0.90;;;16.60;56.90;;;;;;5010826;28;20072;-50
2022/02/02 00:50:20;;;;;;;2.80;0.77;;;16.60;56.80;;;;;;5008234;28;20057;-58
2022/02/02 00:52:50;;;;;;;5.47;0.70;;;16.60;56.80;;;;;;5010705;28;20731;-55
2022/02/02 00:55:16;;;;;;;4.28;1.00;;;16.60;56.70;;;;;;5011970;28;20030;-58
2022/02/02 00:57:42;;;;;;;1.55;1.02;;;16.60;56.70;;;;;;5021871;28;20410;-62
2022/02/02 01:00:08;;;;;;;2.50;0.82;;;16.60;56.60;;;;;;5030571;28;20033;-55
2022/02/02 01:02:33;;;;;;;2.25;1.08;;;16.60;56.60;;;;;;5019604;28;20095;-51
2022/02/02 01:04:59;;;;;;;3.47;1.02;;;16.60;56.50;;;;;;5017273;28;20486;-54
2022/02/02 01:10:08;;;;;;;1.25;0.80;;;16.60;56.40;;;;;;5011340;28;20776;-57
2022/02/02 01:18:10;;;;;;;3.35;1.00;;;16.60;56.30;;;;;;5013264;28;20037;-56
2022/02/02 01:20:48;;;;;;;2.40;0.80;;;16.60;56.30;;;;;;5012191;28;20083;-53
2022/02/02 01:28:31;;;;;;;3.83;1.00;;;16.60;56.10;;;;;;5021289;28;20100;-58
2022/02/02 01:30:57;;;;;;;3.25;0.82;;;16.60;56.10;;;;;;5014974;28;20064;-52
2022/02/02 01:33:22;;;;;;;1.85;0.75;;;16.60;56.00;;;;;;5019611;28;20185;-54
2022/02/02 01:35:49;;;;;;;3.10;1.33;;;16.60;56.00;;;;;;5011102;28;20022;-56
2022/02/02 01:38:14;;;;;;;2.92;0.80;;;16.60;56.00;;;;;;5010543;28;20025;-52
2022/02/02 01:40:49;;;;;;;3.33;1.10;;;16.70;56.00;;;;;;5017307;28;20101;-54
2022/02/02 01:43:34;;;;;;;3.45;1.10;;;16.60;55.90;;;;;;4997422;28;20022;-57
2022/02/02 01:46:04;;;;;;;2.33;0.70;;;16.70;56.00;;;;;;5016551;28;20519;-56
2022/02/02 01:48:37;;;;;;;3.60;0.77;;;16.60;55.90;;;;;;5012963;28;20566;-52
2022/02/02 01:53:58;;;;;;;1.90;0.73;;;16.60;55.90;;;;;;5024515;28;20550;-58
2022/02/02 01:56:24;;;;;;;1.55;0.70;;;16.60;55.90;;;;;;5026184;28;20041;-55
2022/02/02 01:59:09;;;;;;;4.00;0.95;;;16.60;55.80;;;;;;5010997;28;20671;-56
2022/02/02 02:01:35;;;;;;;5.00;1.20;;;16.60;55.80;;;;;;5008637;28;20140;-55
2022/02/02 02:04:00;;;;;;;4.43;1.00;;;16.60;55.80;;;;;;4997199;28;20034;-52
2022/02/02 02:06:26;;;;;;;2.65;0.80;;;16.60;55.80;;;;;;5028922;28;20389;-57
2022/02/02 02:08:51;;;;;;;2.55;1.05;;;16.60;55.80;;;;;;5007626;28;20038;-61
2022/02/02 02:11:20;;;;;;;3.00;0.80;;;16.60;55.80;;;;;;5022740;28;20079;-54
2022/02/02 02:16:14;;;;;;;3.33;0.95;;;16.60;55.70;;;;;;5013404;28;20861;-55
2022/02/02 02:18:39;;;;;;;3.70;0.80;;;16.60;55.80;;;;;;5012051;28;20025;-53
2022/02/02 02:21:10;;;;;;;1.67;0.70;;;16.60;55.90;;;;;;5012059;28;20026;-56
2022/02/02 02:23:36;;;;;;;1.90;0.73;;;16.60;55.90;;;;;;5021599;28;20108;-55
2022/02/02 02:26:01;;;;;;;2.30;0.80;;;16.60;55.80;;;;;;5017593;28;20116;-51
2022/02/02 02:28:45;;;;;;;2.03;0.80;;;16.50;55.80;;;;;;5016175;28;20040;-56
2022/02/02 02:31:25;;;;;;;2.60;0.77;;;16.60;55.90;;;;;;4989546;28;21590;-54
2022/02/02 02:58:35;;;;;;;2.05;0.80;;;16.50;55.80;;;;;;5019212;28;20065;-53
2022/02/02 03:50:23;;;;;;;2.00;0.70;;;16.40;56.20;;;;;;5011270;28;20041;-58
2022/02/02 03:56:15;;;;;;;2.97;0.80;;;16.40;56.20;;;;;;5006671;28;20033;-59
2022/02/02 03:58:44;;;;;;;4.88;0.95;;;16.40;56.20;;;;;;5011611;28;20038;-59
2022/02/02 04:04:07;;;;;;;2.47;1.00;;;16.40;56.20;;;;;;5018986;28;20440;-60
2022/02/02 04:06:33;;;;;;;2.65;1.08;;;16.40;56.30;;;;;;5014736;28;20022;-60
2022/02/02 04:08:59;;;;;;;2.17;0.70;;;16.40;56.30;;;;;;5012524;28;20406;-58
2022/02/02 04:11:39;;;;;;;3.75;0.80;;;16.40;56.30;;;;;;5022358;28;20026;-57
2022/02/02 04:17:24;;;;;;;2.30;0.60;;;16.40;56.30;;;;;;5011746;28;20044;-56
2022/02/02 05:01:08;;;;;;;5.07;0.88;;;16.40;56.40;;;;;;5015295;28;20033;-60
2022/02/02 05:08:25;;;;;;;3.53;1.10;;;16.40;56.40;;;;;;5014169;28;20246;-61
2022/02/02 05:25:22;;;;;;;5.63;1.10;;;16.50;56.80;;;;;;5018689;28;20033;-63
2022/02/02 05:51:54;;;;;;;3.28;1.23;;;16.50;56.70;;;;;;5004200;28;20145;-61
2022/02/02 05:54:20;;;;;;;8.43;2.13;;;16.50;56.60;;;;;;4988779;28;20307;-57
2022/02/02 05:56:50;;;;;;;9.07;2.40;;;16.50;56.50;;;;;;5006208;28;20026;-61
2022/02/02 05:59:22;;;;;;;7.32;3.03;;;16.60;56.60;;;;;;5010294;28;20307;-60
2022/02/02 06:01:52;;;;;;;13.98;4.65;;;16.60;56.60;;;;;;5006884;28;20048;-57
2022/02/02 06:04:29;;;;;;;19.75;8.00;;;16.60;57.00;;;;;;5008738;28;20059;-61
2022/02/02 06:06:56;;;;;;;25.00;8.35;;;16.60;57.50;;;;;;5000221;28;20030;-61
2022/02/02 06:09:29;;;;;;;19.75;9.30;;;16.60;57.50;;;;;;5019775;28;20098;-57
2022/02/02 06:11:55;;;;;;;24.88;8.70;;;16.60;57.70;;;;;;5001957;28;20261;-57
2022/02/02 06:14:25;;;;;;;26.27;8.23;;;16.60;57.80;;;;;;5018473;28;20112;-57
2022/02/02 06:16:55;;;;;;;16.17;7.28;;;16.60;57.70;;;;;;5000580;28;20037;-60
2022/02/02 06:19:23;;;;;;;19.08;7.43;;;16.70;57.60;;;;;;5015460;28;20026;-60
2022/02/02 06:22:08;;;;;;;18.02;7.80;;;16.70;57.60;;;;;;5009706;28;20037;-56
2022/02/02 06:24:34;;;;;;;;;;;16.70;57.30;;;;;;5010801;28;20049;-56
2022/02/02 06:27:01;;;;;;;;;;;16.70;56.80;;;;;;5001788;28;19909;-62
2022/02/02 06:29:27;;;;;;;13.77;5.22;;;16.70;56.40;;;;;;5011541;28;20087;-62
2022/02/02 06:31:52;;;;;;;15.43;4.95;;;16.70;56.10;;;;;;4987052;28;20104;-60
2022/02/02 06:34:18;;;;;;;14.32;4.53;;;16.70;56.50;;;;;;5015120;28;20036;-55
2022/02/02 06:36:44;;;;;;;12.50;4.60;;;16.70;56.10;;;;;;5004373;28;20037;-61
2022/02/02 06:39:11;;;;;;;10.60;3.90;;;16.70;56.00;;;;;;5018778;28;20029;-61
2022/02/02 06:41:37;;;;;;;12.52;3.95;;;16.70;55.70;;;;;;5000777;28;20083;-60
2022/02/02 06:44:09;;;;;;;;;;;16.70;55.50;;;;;;5030589;27;20448;-57
2022/02/02 06:46:38;;;;;;;21.40;7.10;;;16.70;55.50;;;;;;5012525;28;19913;-61
2022/02/02 06:49:03;;;;;;;17.40;7.65;;;16.60;55.50;;;;;;5040286;28;20025;-59
2022/02/02 06:51:47;;;;;;;20.60;6.57;;;16.60;55.60;;;;;;5039908;28;20032;-61
2022/02/02 06:54:19;;;;;;;19.88;7.05;;;16.70;55.60;;;;;;5038321;28;20029;-63
2022/02/02 06:56:52;;;;;;;15.48;6.38;;;16.60;55.60;;;;;;5038029;28;20140;-58
2022/02/02 07:02:11;;;;;;;15.52;5.80;;;16.60;55.90;;;;;;5039146;28;20036;-58
2022/02/02 07:05:13;;;;;;;13.43;4.90;;;16.60;56.00;;;;;;5037340;28;20040;-58
2022/02/02 07:16:17;;;;;;;9.48;4.70;;;16.60;56.20;;;;;;5037794;28;20105;-61
2022/02/02 07:19:06;;;;;;;12.23;4.78;;;16.60;56.20;;;;;;5037150;28;20048;-57
2022/02/02 07:27:32;;;;;;;30.00;11.90;;;16.60;56.20;;;;;;5006871;28;20502;-63
2022/02/02 07:32:18;;;;;;;32.33;12.38;;;16.60;56.10;;;;;;5016238;28;20635;-61
2022/02/02 07:35:05;;;;;;;26.73;11.50;;;16.60;56.10;;;;;;5022702;28;20416;-61
2022/02/02 07:37:36;;;;;;;23.38;9.45;;;16.60;56.00;;;;;;5037778;28;20028;-57
2022/02/02 07:40:05;;;;;;;26.13;9.68;;;16.60;55.80;;;;;;5036306;28;20530;-57
2022/02/02 07:42:31;;;;;;;23.50;8.82;;;16.60;55.80;;;;;;5035972;28;20044;-55
2022/02/02 07:45:08;;;;;;;24.13;8.98;;;16.60;55.60;;;;;;5039612;28;20026;-60
2022/02/02 07:47:38;;;;;;;28.38;9.98;;;16.60;55.50;;;;;;5029645;28;20044;-59
2022/02/02 07:50:05;;;;;;;21.80;8.23;;;16.60;55.50;;;;;;5035903;28;20075;-58
2022/02/02 07:52:30;;;;;;;16.80;6.80;;;16.60;55.50;;;;;;5036696;28;20029;-60
2022/02/02 07:54:58;;;;;;;22.23;7.53;;;16.60;55.40;;;;;;5026311;28;20133;-59
2022/02/02 07:57:27;;;;;;;22.27;7.18;;;16.60;55.40;;;;;;5002535;28;20791;-57
2022/02/02 07:59:58;;;;;;;21.40;6.95;;;16.60;55.40;;;;;;5004305;28;20034;-60
2022/02/02 08:05:05;;;;;;;16.30;5.88;;;16.60;55.50;;;;;;5021959;28;20121;-60
2022/02/02 08:07:37;;;;;;;18.15;6.47;;;16.60;55.40;;;;;;5022622;28;20531;-61
2022/02/02 08:12:43;;;;;;;18.20;5.75;;;16.60;55.40;;;;;;5023730;28;20037;-60
2022/02/02 08:15:10;;;;;;;15.40;5.80;;;16.60;55.50;;;;;;5023257;28;20407;-60
2022/02/02 08:17:35;;;;;;;13.90;5.97;;;16.60;55.50;;;;;;5024098;28;20036;-60
2022/02/02 08:20:01;;;;;;;16.20;5.68;;;16.50;55.40;;;;;;5021862;28;20037;-60
2022/02/02 08:22:29;;;;;;;13.43;4.53;;;16.50;55.50;;;;;;5022857;28;20036;-55
2022/02/02 08:24:55;;;;;;;15.52;5.88;;;16.50;55.60;;;;;;5018542;28;20038;-59
2022/02/02 08:27:21;;;;;;;11.65;4.88;;;16.50;55.60;;;;;;5022092;28;20030;-60
2022/02/02 08:29:47;;;;;;;11.15;4.80;;;16.50;55.60;;;;;;5020069;28;20029;-58
2022/02/02 08:32:12;;;;;;;16.73;4.88;;;16.50;55.70;;;;;;5020263;28;20053;-58
2022/02/02 08:34:44;;;;;;;9.77;4.28;;;16.50;55.70;;;;;;5021150;28;20026;-58
2022/02/02 08:37:10;;;;;;;11.45;4.85;;;16.50;55.80;;;;;;5021775;28;20029;-60
2022/02/02 08:39:59;;;;;;;14.27;4.75;;;16.50;55.80;;;;;;5021022;28;20029;-58
2022/02/02 08:42:29;;;;;;;12.95;4.38;;;16.40;55.80;;;;;;5021545;28;20036;-60
2022/02/02 08:45:15;;;;;;;12.85;4.65;;;16.40;55.80;;;;;;5014259;28;20108;-60
2022/02/02 08:47:46;;;;;;;12.73;4.88;;;16.40;55.90;;;;;;5024128;28;20057;-61
2022/02/02 08:50:12;;;;;;;10.70;5.68;;;16.50;56.60;;;;;;5019693;28;20038;-58
2022/02/02 08:52:49;;;;;;;12.95;5.63;;;16.50;56.80;;;;;;5025856;28;20400;-60
2022/02/02 08:55:18;;;;;;;14.13;5.03;;;16.50;56.90;;;;;;5020795;28;20117;-60
2022/02/02 08:57:57;;;;;;;12.27;4.85;;;16.50;56.90;;;;;;5023979;28;20072;-60
2022/02/02 09:00:24;;;;;;;13.27;5.10;;;16.50;56.90;;;;;;5021695;28;20044;-59
2022/02/02 09:05:18;;;;;;;10.68;4.95;;;16.50;57.10;;;;;;5020408;28;20080;-58
2022/02/02 09:05:38;;;;;;;13.20;5.38;;;16.40;57.30;;;;;;4996695;28;20022;-58
2022/02/02 09:08:04;;;;;;;12.82;4.32;;;16.50;57.30;;;;;;5003680;28;20037;-58
2022/02/02 09:32:32;;;;;;;10.93;4.10;;;16.40;57.10;;;;;;5037864;28;20040;-58
2022/02/02 09:34:58;;;;;;;7.78;2.97;;;16.50;57.20;;;;;;5018808;28;20582;-58
2022/02/02 09:37:25;;;;;;;5.90;2.55;;;16.50;57.10;;;;;;5018478;28;20545;-59
2022/02/02 09:40:03;;;;;;;10.02;3.80;;;16.50;57.10;;;;;;5019042;28;20541;-57
2022/02/02 09:42:30;;;;;;;11.65;3.20;;;16.50;57.10;;;;;;5019587;28;20495;-58
2022/02/02 09:44:57;;;;;;;10.57;3.22;;;16.50;57.00;;;;;;5018054;28;20104;-58
2022/02/02 09:47:35;;;;;;;7.25;2.85;;;16.40;57.20;;;;;;5019799;28;20719;-58
2022/02/02 09:50:26;;;;;;;7.85;3.05;;;16.40;57.30;;;;;;5011427;28;20034;-60
2022/02/02 09:52:57;;;;;;;7.78;2.60;;;16.40;57.50;;;;;;5019459;28;20112;-58
2022/02/02 10:03:23;;;;;;;7.22;2.65;;;16.30;57.70;;;;;;5020005;28;20072;-59
2022/02/02 10:06:14;;;;;;;6.75;2.15;;;16.40;57.80;;;;;;5007496;28;20025;-58
2022/02/02 10:14:17;;;;;;;9.07;2.80;;;16.30;57.80;;;;;;4993840;28;20026;-59
2022/02/02 10:16:44;;;;;;;9.82;3.10;;;16.40;58.00;;;;;;5015317;28;20083;-57
2022/02/02 10:19:20;;;;;;;9.43;2.63;;;16.40;58.10;;;;;;4997843;28;20037;-58
2022/02/02 10:21:45;;;;;;;8.32;2.75;;;16.40;58.10;;;;;;5014739;28;20026;-58
2022/02/02 10:24:11;;;;;;;8.57;2.05;;;16.40;58.20;;;;;;5014470;28;20041;-57
2022/02/02 10:26:49;;;;;;;5.47;2.65;;;16.40;58.20;;;;;;5032291;28;20038;-58
2022/02/02 10:29:15;;;;;;;5.78;2.38;;;16.40;58.30;;;;;;5018379;28;20041;-59
2022/02/02 10:31:46;;;;;;;9.38;2.25;;;16.40;58.20;;;;;;5016756;28;20030;-58
2022/02/02 10:34:18;;;;;;;10.60;2.80;;;16.50;58.30;;;;;;5018651;28;20425;-56
2022/02/02 10:36:44;;;;;;;7.65;2.40;;;16.40;58.30;;;;;;5018455;28;20040;-59
2022/02/02 10:39:14;;;;;;;7.57;2.67;;;16.40;58.30;;;;;;5013726;28;20117;-59
2022/02/02 10:41:50;;;;;;;8.20;2.30;;;16.50;58.40;;;;;;5029619;28;20057;-59
2022/02/02 10:44:19;;;;;;;5.13;1.85;;;16.40;58.40;;;;;;5017504;28;20038;-59
2022/02/02 10:49:31;;;;;;;5.45;2.22;;;16.50;58.50;;;;;;5015804;28;20037;-58
2022/02/02 10:52:05;;;;;;;4.63;1.85;;;16.50;58.50;;;;;;5015721;28;20032;-57
2022/02/02 10:54:42;;;;;;;6.65;2.22;;;16.50;58.60;;;;;;5011087;28;20026;-59
2022/02/02 11:07:50;;;;;;;5.15;1.98;;;16.50;59.10;;;;;;5017639;28;20032;-55
2022/02/02 11:10:15;;;;;;;4.38;1.70;;;16.60;59.20;;;;;;5016645;28;20042;-56
2022/02/02 11:12:41;;;;;;;8.80;1.98;;;16.60;59.20;;;;;;5017276;28;20029;-58
2022/02/02 11:15:13;;;;;;;5.65;1.75;;;16.60;59.20;;;;;;5014835;28;20031;-58
2022/02/02 11:18:03;;;;;;;5.18;1.55;;;16.50;59.20;;;;;;5018929;28;20457;-58
2022/02/02 11:20:28;;;;;;;7.45;1.88;;;16.60;59.30;;;;;;5015859;28;20727;-54
2022/02/02 11:22:55;;;;;;;4.93;1.55;;;16.60;59.30;;;;;;5018782;28;20030;-57
2022/02/02 11:25:23;;;;;;;4.45;1.58;;;16.60;59.30;;;;;;5018553;28;20064;-59
2022/02/02 11:27:50;;;;;;;4.13;1.67;;;16.60;59.40;;;;;;5018739;28;20026;-57
2022/02/02 11:30:25;;;;;;;3.25;1.60;;;16.60;59.20;;;;;;5018258;28;20041;-58
2022/02/02 11:32:52;;;;;;;3.53;1.40;;;16.60;59.00;;;;;;5022650;28;20685;-58
2022/02/02 11:35:51;;;;;;;3.72;1.58;;;16.60;59.00;;;;;;5021713;28;20274;-57
2022/02/02 11:38:24;;;;;;;4.95;1.55;;;16.60;59.10;;;;;;5022888;28;20043;-55
2022/02/02 11:41:12;;;;;;;4.60;1.73;;;16.60;59.00;;;;;;5020917;28;20029;-58
2022/02/02 11:47:08;;;;;;;3.85;1.77;;;16.70;58.90;;;;;;5018461;28;20494;-59
2022/02/02 11:49:59;;;;;;;;;;;16.70;59.00;;;;;;5020852;28;20513;-57
2022/02/02 11:52:38;;;;;;;6.10;1.80;;;16.70;59.20;;;;;;5022008;28;20488;-57
2022/02/02 11:55:11;;;;;;;4.80;1.48;;;16.70;59.20;;;;;;5021905;28;20068;-58
2022/02/02 11:58:16;;;;;;;2.90;1.30;;;16.70;59.20;;;;;;5022079;28;20040;-56
2022/02/02 12:01:04;;;;;;;8.98;1.63;;;16.70;59.20;;;;;;5021984;28;20032;-58
2022/02/02 12:06:32;;;;;;;6.25;1.63;;;16.70;59.20;;;;;;5018303;28;20041;-55
2022/02/02 12:09:10;;;;;;;6.55;1.73;;;16.70;59.20;;;;;;5019453;28;20310;-58
2022/02/02 12:21:11;;;;;;;5.45;1.80;;;16.70;58.90;;;;;;5020967;28;20106;-56
2022/02/02 12:48:46;;;;;;;3.20;1.20;;;16.80;59.00;;;;;;5018389;28;20044;-56
2022/02/02 12:57:22;;;;;;;4.57;1.27;;;16.80;59.10;;;;;;4969480;28;20626;-57
2022/02/02 13:02:17;;;;;;;4.47;1.30;;;16.80;59.20;;;;;;5019595;28;20120;-57
2022/02/02 13:04:50;;;;;;;3.47;1.73;;;16.80;59.20;;;;;;5018905;28;20398;-57
2022/02/02 13:07:17;;;;;;;4.20;1.33;;;16.80;59.20;;;;;;5019378;28;20160;-55
2022/02/02 13:09:44;;;;;;;5.95;1.35;;;16.80;59.20;;;;;;5034980;28;20048;-57
2022/02/02 13:12:27;;;;;;;1.83;0.80;;;16.80;59.20;;;;;;5015717;28;20053;-56
2022/02/02 13:17:43;;;;;;;2.72;0.98;;;16.80;59.30;;;;;;4989976;28;20053;-57
2022/02/02 13:20:12;;;;;;;3.60;1.17;;;16.90;59.30;;;;;;5019664;28;20056;-57
2022/02/02 13:22:39;;;;;;;2.75;1.10;;;16.80;59.20;;;;;;5020603;28;20038;-57
2022/02/02 13:25:20;;;;;;;3.80;0.98;;;16.80;59.20;;;;;;5020734;28;20135;-60
2022/02/02 13:27:48;;;;;;;2.25;1.00;;;16.80;59.30;;;;;;5008952;28;20100;-57
2022/02/02 13:30:39;;;;;;;1.88;0.80;;;16.80;59.20;;;;;;5020489;28;20041;-57
2022/02/02 13:33:14;;;;;;;4.57;1.30;;;16.80;59.20;;;;;;5007913;28;20041;-58
2022/02/02 13:35:52;;;;;;;2.40;1.02;;;16.90;59.40;;;;;;5019483;28;20701;-58
2022/02/02 13:38:39;;;;;;;2.45;1.10;;;16.80;59.20;;;;;;5019671;28;20065;-57
2022/02/02 13:47:00;;;;;;;4.55;1.25;;;16.90;59.10;;;;;;5020571;28;20029;-57
2022/02/02 13:49:49;;;;;;;2.80;1.05;;;16.90;59.10;;;;;;5016362;28;20026;-55
2022/02/02 13:52:45;;;;;;;3.08;1.00;;;16.90;59.10;;;;;;5013369;28;20031;-54
2022/02/02 13:55:34;;;;;;;2.47;1.10;;;16.90;59.10;;;;;;5013588;28;20272;-54
2022/02/02 13:58:41;;;;;;;1.95;1.10;;;16.90;59.00;;;;;;5022144;28;20033;-56
2022/02/02 14:01:27;;;;;;;3.63;1.20;;;16.90;59.00;;;;;;5019509;28;20041;-55
2022/02/02 14:06:38;;;;;;;5.05;1.05;;;16.90;59.20;;;;;;5012035;28;20029;-56
2022/02/02 14:32:57;;;;;;;3.58;1.40;;;16.90;59.40;;;;;;5016076;28;20599;-55
2022/02/02 14:35:22;;;;;;;4.88;1.48;;;16.90;59.30;;;;;;5018051;28;20025;-57
2022/02/02 14:37:50;;;;;;;5.15;0.90;;;16.80;59.90;;;;;;5017882;28;20053;-57
2022/02/02 14:40:23;;;;;;;3.20;1.08;;;16.90;59.20;;;;;;5019338;28;20026;-58
2022/02/02 14:42:52;;;;;;;3.88;1.17;;;16.90;59.20;;;;;;5019321;28;20040;-58
2022/02/02 14:45:22;;;;;;;3.40;0.90;;;16.90;59.10;;;;;;5019008;28;20269;-57
2022/02/02 14:47:51;;;;;;;3.13;0.90;;;16.90;59.10;;;;;;5017993;28;20021;-58
2022/02/02 14:50:54;;;;;;;3.55;1.40;;;16.90;59.20;;;;;;5019441;28;20120;-57
2022/02/02 14:53:15;;;;;;;3.72;1.73;;;16.90;59.10;;;;;;5016496;28;20033;-56
2022/02/02 15:27:51;;;;;;;1.38;0.75;;;16.90;59.00;;;;;;5001557;28;20021;-58
2022/02/02 15:32:53;;;;;;;3.53;1.13;;;16.90;58.80;;;;;;5014284;28;20029;-56
2022/02/02 15:35:19;;;;;;;2.53;0.93;;;16.90;58.70;;;;;;5029237;23;20647;-67
2022/02/02 15:37:57;;;;;;;3.65;0.90;;;16.90;58.60;;;;;;5037559;28;20017;-66
2022/02/02 15:40:28;;;;;;;2.58;0.80;;;16.90;58.50;;;;;;5029864;28;20068;-64
2022/02/02 15:58:48;;;;;;;2.60;1.38;;;17.00;58.10;;;;;;5024852;28;20033;-66
2022/02/02 16:03:44;;;;;;;3.72;1.00;;;17.00;58.10;;;;;;5005340;28;20029;-65
2022/02/02 16:06:19;;;;;;;2.75;0.93;;;17.00;58.10;;;;;;4993843;28;20026;-65
2022/02/02 16:08:46;;;;;;;5.70;1.08;;;17.00;58.10;;;;;;5013509;28;20025;-67
2022/02/02 16:16:15;;;;;;;4.35;1.10;;;17.00;58.00;;;;;;5015441;28;20022;-66
2022/02/02 16:18:48;;;;;;;5.38;1.30;;;17.00;57.90;;;;;;5015216;28;20141;-65
2022/02/02 16:37:41;;;;;;;4.28;1.17;;;17.00;57.70;;;;;;5011131;28;20072;-63
2022/02/02 16:40:09;;;;;;;3.10;0.95;;;17.00;57.70;;;;;;4973765;28;20021;-66
2022/02/02 16:45:20;;;;;;;2.72;0.70;;;17.00;57.70;;;;;;4982914;28;20399;-66
2022/02/02 16:47:46;;;;;;;1.83;1.15;;;17.00;57.60;;;;;;5021058;28;20017;-66
2022/02/02 16:50:19;;;;;;;2.13;0.85;;;17.00;57.70;;;;;;4978902;28;20553;-66
2022/02/02 16:52:47;;;;;;;2.88;0.90;;;17.00;57.70;;;;;;5017061;28;20025;-65
2022/02/02 16:55:22;;;;;;;2.83;0.73;;;16.90;57.70;;;;;;5002504;28;20073;-64
2022/02/02 17:30:22;;;;;;;1.80;0.90;;;16.90;58.10;;;;;;5010694;28;20034;-66
2022/02/02 17:33:34;;;;;;;3.63;1.20;;;16.90;58.00;;;;;;5005606;28;20117;-67
2022/02/02 17:38:59;;;;;;;9.57;0.90;;;17.00;58.20;;;;;;4980182;28;20084;-66
2022/02/02 17:41:37;;;;;;;5.13;1.92;;;16.90;58.20;;;;;;4998568;28;20041;-66
2022/02/02 17:44:23;;;;;;;3.65;0.80;;;16.90;58.10;;;;;;4999331;28;20041;-67
2022/02/02 18:12:18;;;;;;;1.88;0.80;;;16.90;58.70;;;;;;5019620;28;20026;-67
2022/02/02 18:21:17;;;;;;;4.75;1.02;;;16.90;58.80;;;;;;4998484;28;20025;-67
2022/02/02 18:23:50;;;;;;;2.78;1.27;;;16.90;58.80;;;;;;4976567;28;20021;-67
2022/02/02 18:26:23;;;;;;;2.95;1.13;;;16.90;58.70;;;;;;5001968;28;20116;-67
2022/02/02 18:29:05;;;;;;;1.52;0.60;;;16.90;58.70;;;;;;4981408;28;20384;-67
2022/02/02 18:39:59;;;;;;;2.63;1.08;;;16.90;58.90;;;;;;5014989;28;20050;-65
2022/02/02 18:55:12;;;;;;;1.40;0.98;;;17.00;58.90;;;;;;4979719;28;20306;-67
2022/02/02 18:58:09;;;;;;;3.90;0.90;;;17.00;58.70;;;;;;4999047;28;20039;-65
2022/02/02 19:57:25;;;;;;;4.28;0.85;;;17.10;57.60;;;;;;5000391;28;20176;-67
2022/02/02 20:03:06;;;;;;;2.20;0.93;;;17.10;57.50;;;;;;5011760;28;20056;-67
2022/02/02 20:05:45;;;;;;;2.47;1.02;;;17.10;57.40;;;;;;4996993;28;20026;-66
2022/02/02 20:10:58;;;;;;;4.13;0.88;;;17.10;57.40;;;;;;5011169;28;20480;-68
2022/02/02 20:13:24;;;;;;;1.63;0.90;;;17.10;57.40;;;;;;4995628;28;20448;-67
2022/02/02 20:15:49;;;;;;;5.80;1.17;;;17.10;57.30;;;;;;5000218;28;20109;-69
2022/02/02 20:18:15;;;;;;;2.45;1.35;;;17.10;57.30;;;;;;4984947;28;20156;-68
2022/02/02 20:20:43;;;;;;;2.67;0.90;;;17.10;57.60;;;;;;4997130;28;20159;-68
2022/02/02 20:23:09;;;;;;;6.85;1.05;;;17.10;57.90;;;;;;4992533;28;20026;-67
2022/02/02 20:25:36;;;;;;;6.57;1.13;;;17.10;58.00;;;;;;4992916;28;20025;-68
2022/02/02 20:28:06;;;;;;;3.67;1.13;;;17.10;58.10;;;;;;5024114;28;20014;-68
2022/02/02 20:30:35;;;;;;;3.00;1.00;;;17.10;58.10;;;;;;4998604;28;20600;-68
2022/02/02 20:33:01;;;;;;;2.35;0.88;;;17.10;58.10;;;;;;5019139;28;20059;-68
2022/02/02 20:35:26;;;;;;;3.13;0.80;;;17.10;58.00;;;;;;5000883;28;20025;-69
2022/02/02 20:37:52;;;;;;;2.05;0.65;;;17.10;57.90;;;;;;5001311;28;20056;-67
2022/02/02 20:40:17;;;;;;;3.63;0.88;;;17.10;58.50;;;;;;5014636;28;20484;-68
2022/02/02 20:42:56;;;;;;;2.40;0.90;;;17.10;57.80;;;;;;4997255;28;20056;-68
2022/02/02 21:06:59;;;;;;;4.30;1.27;;;17.10;57.20;;;;;;5004528;28;20071;-67
2022/02/02 21:14:41;;;;;;;2.95;0.90;;;17.10;57.10;;;;;;4993300;28;20069;-67
2022/02/02 21:17:08;;;;;;;1.42;0.80;;;17.00;57.20;;;;;;4983841;28;20022;-67
2022/02/02 21:19:47;;;;;;;3.63;0.95;;;17.00;57.40;;;;;;4996137;28;20477;-67
2022/02/02 21:22:13;;;;;;;2.25;1.05;;;17.00;57.40;;;;;;4982276;28;20436;-67
2022/02/02 21:25:06;;;;;;;2.42;0.85;;;17.00;57.40;;;;;;4993854;28;20022;-67
2022/02/02 21:27:39;;;;;;;2.38;0.77;;;17.00;57.50;;;;;;4983151;28;20088;-67
2022/02/02 21:30:08;;;;;;;2.05;0.73;;;17.00;57.50;;;;;;4977422;28;20025;-67
2022/02/02 21:32:34;;;;;;;5.32;0.55;;;17.00;57.50;;;;;;4976079;28;20025;-67
2022/02/02 21:35:05;;;;;;;3.85;1.50;;;17.00;57.50;;;;;;5022653;22;20049;-54
2022/02/02 21:37:34;;;;;;;2.20;0.73;;;17.00;57.50;;;;;;5030435;28;20137;-55
2022/02/02 21:42:46;;;;;;;3.53;1.08;;;17.00;57.50;;;;;;5033185;28;20036;-54
2022/02/02 21:45:12;;;;;;;4.03;1.00;;;17.00;58.00;;;;;;5019596;28;20029;-52
2022/02/02 21:47:38;;;;;;;2.72;0.80;;;17.00;57.40;;;;;;5039040;28;20033;-53
2022/02/02 21:50:09;;;;;;;2.28;0.82;;;17.00;57.30;;;;;;5038118;28;20036;-53
2022/02/02 21:52:35;;;;;;;2.60;1.00;;;17.00;57.20;;;;;;5038666;28;20797;-56
2022/02/02 21:55:02;;;;;;;5.30;1.15;;;17.00;57.10;;;;;;5040007;28;20074;-53
2022/02/02 21:57:27;;;;;;;4.95;1.25;;;17.00;57.20;;;;;;5040412;28;20116;-55
2022/02/02 21:59:53;;;;;;;4.80;1.05;;;17.00;57.10;;;;;;5038680;28;20115;-56
2022/02/02 22:02:19;;;;;;;3.05;1.13;;;17.00;57.00;;;;;;5040059;28;20448;-56
2022/02/02 22:04:44;;;;;;;2.72;1.25;;;17.00;57.00;;;;;;5039285;28;20025;-52
2022/02/02 22:07:10;;;;;;;4.90;1.33;;;17.00;57.00;;;;;;5038182;28;20083;-54
2022/02/02 22:09:35;;;;;;;2.53;1.00;;;17.00;57.60;;;;;;5039439;28;20021;-57
2022/02/02 22:12:01;;;;;;;3.22;1.10;;;17.00;56.90;;;;;;5038227;28;20025;-55
2022/02/02 22:14:26;;;;;;;1.73;0.75;;;17.00;56.80;;;;;;5039112;28;20082;-53
2022/02/02 22:16:53;;;;;;;2.60;1.15;;;17.00;57.30;;;;;;5038796;28;20025;-50
2022/02/02 22:19:19;;;;;;;4.43;1.40;;;17.10;56.60;;;;;;5038709;28;20025;-49
2022/02/02 22:21:45;;;;;;;3.28;1.67;;;17.00;56.50;;;;;;5038183;28;20075;-57
2022/02/02 22:24:12;;;;;;;3.25;0.90;;;17.00;56.50;;;;;;5034823;28;20509;-58
2022/02/02 22:26:37;;;;;;;2.92;1.17;;;17.00;56.50;;;;;;5037508;28;20032;-59
2022/02/02 22:29:03;;;;;;;3.65;1.20;;;17.00;56.60;;;;;;5037970;28;20029;-58
2022/02/02 22:31:28;;;;;;;2.92;0.80;;;17.00;56.80;;;;;;5039513;28;20029;-59
2022/02/02 22:33:54;;;;;;;2.72;0.90;;;17.00;56.80;;;;;;5038512;28;20040;-57
2022/02/02 22:36:20;;;;;;;3.03;1.02;;;17.00;56.80;;;;;;5039753;28;20025;-57
2022/02/02 22:38:46;;;;;;;2.95;0.90;;;17.00;56.90;;;;;;5039535;28;20112;-58
2022/02/02 22:41:11;;;;;;;2.40;1.27;;;17.00;56.80;;;;;;5038349;28;20029;-59
2022/02/02 22:43:44;;;;;;;4.05;1.05;;;17.00;56.80;;;;;;5036022;28;20144;-58
2022/02/02 22:46:10;;;;;;;3.90;1.15;;;17.00;56.90;;;;;;5039803;28;20060;-56
2022/02/02 22:48:38;;;;;;;1.23;0.63;;;17.00;57.20;;;;;;5038969;28;20068;-56
2022/02/02 22:51:04;;;;;;;7.30;1.30;;;17.00;57.50;;;;;;5038794;28;20083;-57
2022/02/02 22:53:29;;;;;;;3.08;0.80;;;17.00;57.30;;;;;;5039388;28;20502;-57
2022/02/02 22:55:55;;;;;;;3.33;1.10;;;17.00;57.20;;;;;;5037768;28;20032;-54
2022/02/02 22:58:20;;;;;;;3.58;1.02;;;17.00;57.10;;;;;;5037573;28;20025;-57
2022/02/02 23:00:47;;;;;;;2.95;1.38;;;17.00;57.00;;;;;;5038472;28;20033;-56
2022/02/02 23:03:18;;;;;;;3.35;0.98;;;17.00;56.90;;;;;;5028882;28;20563;-55
2022/02/02 23:05:46;;;;;;;1.95;0.95;;;17.00;56.80;;;;;;5038527;28;20567;-55
2022/02/02 23:08:14;;;;;;;7.18;0.90;;;17.00;56.60;;;;;;5021232;28;20030;-58
2022/02/02 23:10:40;;;;;;;4.32;1.20;;;17.10;56.60;;;;;;5033334;28;20163;-56
2022/02/02 23:13:06;;;;;;;3.28;1.00;;;17.00;56.60;;;;;;5033527;28;20550;-56
2022/02/02 23:18:21;;;;;;;1.37;0.77;;;17.10;56.30;;;;;;5034804;28;20040;-56
2022/02/02 23:20:54;;;;;;;2.63;0.98;;;17.10;56.30;;;;;;5037697;28;20025;-57
2022/02/02 23:23:22;;;;;;;2.63;0.88;;;17.10;56.20;;;;;;5021833;28;20061;-55